Time;durP1;ratioP1;P1;durP2;ratioP2;P2;SDS_P1;SDS_P2;PMS_P1;PMS_P2;Temp;Humidity;BMP_temperature;BMP_pressure;BME280_temperature;BME280_humidity;BME280_pressure;Samples;Min_cycle;Max_cycle;Signal;HPM_P1;HPM_P2
2021/03/20 00:01:42;;;;;;;0.60;0.60;;;19.60;44.30;;;;;;6172583;28;20037;-70
2021/03/20 00:04:42;;;;;;;0.82;0.73;;;19.60;44.30;;;;;;6179395;28;20114;-71
2021/03/20 00:07:43;;;;;;;0.57;0.52;;;19.50;44.20;;;;;;6195573;28;20038;-70
2021/03/20 00:10:45;;;;;;;1.88;0.73;;;19.50;44.20;;;;;;6172345;28;20496;-70
2021/03/20 00:13:46;;;;;;;1.13;0.90;;;19.50;44.20;;;;;;6172278;28;20031;-69
2021/03/20 00:16:47;;;;;;;1.67;0.75;;;19.50;44.20;;;;;;6172177;28;20050;-69
2021/03/20 00:19:47;;;;;;;0.85;0.63;;;19.50;44.20;;;;;;6172136;28;20081;-70
2021/03/20 00:22:48;;;;;;;2.10;0.95;;;19.50;44.20;;;;;;6170793;28;20070;-70
2021/03/20 00:25:48;;;;;;;0.73;0.60;;;19.50;44.20;;;;;;6171944;28;20126;-69
2021/03/20 00:28:50;;;;;;;1.00;0.70;;;19.50;44.20;;;;;;6171295;28;20065;-70
2021/03/20 00:31:51;;;;;;;1.25;0.85;;;19.50;44.20;;;;;;6171985;28;20340;-70
2021/03/20 00:34:52;;;;;;;0.73;0.68;;;19.50;44.20;;;;;;6171767;28;20042;-69
2021/03/20 00:37:54;;;;;;;0.95;0.70;;;19.50;44.20;;;;;;6183443;28;20031;-70
2021/03/20 00:40:57;;;;;;;0.98;0.77;;;19.50;44.20;;;;;;6175389;28;20034;-70
2021/03/20 00:43:57;;;;;;;1.00;0.50;;;19.50;44.20;;;;;;6171348;28;20502;-70
2021/03/20 00:46:57;;;;;;;0.55;0.50;;;19.60;44.30;;;;;;6171365;28;20039;-70
2021/03/20 00:49:58;;;;;;;0.40;0.40;;;19.50;44.20;;;;;;6196403;28;20064;-70
2021/03/20 00:52:59;;;;;;;0.93;0.70;;;19.50;44.20;;;;;;6195476;28;20038;-71
2021/03/20 00:56:00;;;;;;;0.98;0.82;;;19.50;44.30;;;;;;6176667;28;20030;-70
2021/03/20 00:59:00;;;;;;;0.93;0.60;;;19.50;44.30;;;;;;6171645;28;20027;-70
2021/03/20 01:02:01;;;;;;;1.00;0.88;;;19.50;44.20;;;;;;6171357;28;20035;-71
2021/03/20 01:05:02;;;;;;;1.10;0.70;;;19.50;44.30;;;;;;6170919;28;20053;-70
2021/03/20 01:08:03;;;;;;;0.70;0.60;;;19.50;44.20;;;;;;6171114;28;20489;-71
2021/03/20 01:11:05;;;;;;;0.70;0.60;;;19.50;44.30;;;;;;6170874;28;20046;-70
2021/03/20 01:14:06;;;;;;;0.65;0.52;;;19.50;44.20;;;;;;6170990;28;20074;-70
2021/03/20 01:17:06;;;;;;;0.93;0.60;;;19.50;44.30;;;;;;6171244;28;20506;-70
2021/03/20 01:20:08;;;;;;;1.10;0.68;;;19.50;44.20;;;;;;6170886;28;20035;-70
2021/03/20 01:23:09;;;;;;;1.02;0.70;;;19.50;44.20;;;;;;6170776;28;20045;-70
2021/03/20 01:26:10;;;;;;;0.95;0.60;;;19.50;44.30;;;;;;6170942;28;20091;-70
2021/03/20 01:29:10;;;;;;;1.38;0.70;;;19.50;44.20;;;;;;6171168;28;20456;-70
2021/03/20 01:32:11;;;;;;;1.00;0.55;;;19.50;44.30;;;;;;6170690;28;20035;-71
2021/03/20 01:35:11;;;;;;;0.93;0.60;;;19.50;44.30;;;;;;6170877;28;20027;-70
2021/03/20 01:38:12;;;;;;;1.00;0.55;;;19.50;44.30;;;;;;6170806;28;20097;-70
2021/03/20 01:41:19;;;;;;;1.33;0.90;;;19.50;44.30;;;;;;6172441;28;20367;-70
2021/03/20 01:44:23;;;;;;;1.20;0.80;;;19.50;44.30;;;;;;6174675;28;20026;-69
2021/03/20 01:47:23;;;;;;;0.70;0.60;;;19.50;44.30;;;;;;6174134;28;20480;-70
2021/03/20 01:50:33;;;;;;;1.02;0.65;;;19.50;44.20;;;;;;6181711;28;20019;-70
2021/03/20 01:53:37;;;;;;;0.95;0.63;;;19.50;44.30;;;;;;6199743;28;20315;-70
2021/03/20 01:56:45;;;;;;;0.70;0.52;;;19.50;44.30;;;;;;6199407;28;20065;-70
2021/03/20 01:59:47;;;;;;;1.05;0.60;;;19.50;44.30;;;;;;6199232;28;20030;-70
2021/03/20 02:02:47;;;;;;;0.60;0.50;;;19.50;44.30;;;;;;6199459;28;20041;-70
2021/03/20 02:05:48;;;;;;;0.70;0.60;;;19.50;44.30;;;;;;6199249;28;20105;-70
2021/03/20 02:08:50;;;;;;;0.88;0.60;;;19.50;44.30;;;;;;6199377;28;20077;-70
2021/03/20 02:12:04;;;;;;;0.70;0.57;;;19.50;44.30;;;;;;6198964;28;20069;-70
2021/03/20 02:15:23;;;;;;;0.90;0.60;;;19.50;44.30;;;;;;6197850;28;20034;-70
2021/03/20 02:18:56;;;;;;;1.08;0.55;;;19.50;44.30;;;;;;6198683;28;20408;-70
2021/03/20 02:22:02;;;;;;;0.98;0.70;;;19.50;44.30;;;;;;6198804;28;20038;-69
2021/03/20 02:25:24;;;;;;;2.05;0.90;;;19.50;44.30;;;;;;6199390;28;20105;-70
2021/03/20 02:29:08;;;;;;;0.63;0.47;;;19.50;44.30;;;;;;6198839;28;20043;-70
2021/03/20 02:32:29;;;;;;;1.30;0.60;;;19.50;44.30;;;;;;6193154;28;20030;-70
2021/03/20 02:35:42;;;;;;;1.00;0.60;;;19.50;44.30;;;;;;6166967;28;20039;-70
2021/03/20 02:38:54;;;;;;;1.25;0.50;;;19.50;44.40;;;;;;6174556;28;20054;-70
2021/03/20 02:42:04;;;;;;;0.70;0.63;;;19.50;44.30;;;;;;6174129;28;20027;-70
2021/03/20 02:45:31;;;;;;;0.88;0.60;;;19.50;44.30;;;;;;6173460;28;20045;-70
2021/03/20 02:48:49;;;;;;;1.83;0.80;;;19.50;44.40;;;;;;6174173;28;20035;-70
2021/03/20 02:52:13;;;;;;;1.42;0.60;;;19.50;44.30;;;;;;6173448;28;20430;-70
2021/03/20 02:55:24;;;;;;;1.48;0.80;;;19.50;44.30;;;;;;6173532;28;20493;-70
2021/03/20 02:58:35;;;;;;;0.93;0.50;;;19.50;44.30;;;;;;6173550;28;20031;-70
2021/03/20 03:01:38;;;;;;;0.80;0.60;;;19.50;44.30;;;;;;6173432;28;20075;-70
2021/03/20 03:04:53;;;;;;;1.55;0.70;;;19.40;44.20;;;;;;6174053;28;20019;-70
2021/03/20 03:08:06;;;;;;;0.63;0.50;;;19.50;44.30;;;;;;6173751;28;20030;-70
2021/03/20 03:11:12;;;;;;;0.50;0.50;;;19.50;44.30;;;;;;6173484;28;20062;-70
2021/03/20 03:14:25;;;;;;;0.98;0.50;;;19.50;44.30;;;;;;6173691;28;20085;-70
2021/03/20 03:17:28;;;;;;;0.93;0.60;;;19.40;44.20;;;;;;6173215;28;20058;-70
2021/03/20 03:20:35;;;;;;;1.65;0.73;;;19.50;44.30;;;;;;6173381;28;20035;-71
2021/03/20 03:23:39;;;;;;;1.73;0.90;;;19.50;44.30;;;;;;6174438;28;20106;-70
2021/03/20 03:26:42;;;;;;;1.00;0.52;;;19.50;44.40;;;;;;6173217;28;20034;-70
2021/03/20 03:29:43;;;;;;;0.85;0.63;;;19.40;44.30;;;;;;6191732;28;20054;-69
2021/03/20 03:32:48;;;;;;;1.33;0.52;;;19.40;44.20;;;;;;6188690;28;20037;-69
2021/03/20 03:35:52;;;;;;;2.10;0.82;;;19.40;44.30;;;;;;6173413;28;20027;-70
2021/03/20 03:39:11;;;;;;;0.95;0.60;;;19.40;44.20;;;;;;6171664;28;20046;-70
2021/03/20 03:42:14;;;;;;;0.70;0.68;;;19.50;44.40;;;;;;6173292;28;20078;-70
2021/03/20 03:45:17;;;;;;;0.60;0.60;;;19.50;44.40;;;;;;6172530;28;20027;-70
2021/03/20 03:48:20;;;;;;;0.80;0.68;;;19.40;44.20;;;;;;6172554;28;20089;-71
2021/03/20 03:51:21;;;;;;;0.50;0.50;;;19.40;44.20;;;;;;6172739;28;20392;-70
2021/03/20 03:54:21;;;;;;;2.05;1.13;;;19.40;44.20;;;;;;6187843;28;20547;-70
2021/03/20 03:57:39;;;;;;;0.80;0.60;;;19.40;44.30;;;;;;6194545;28;20026;-70
2021/03/20 04:00:50;;;;;;;1.13;0.57;;;19.40;44.30;;;;;;6173208;28;20504;-69
2021/03/20 04:04:01;;;;;;;0.98;0.70;;;19.40;44.30;;;;;;6171369;28;20042;-70
2021/03/20 04:07:28;;;;;;;0.68;0.50;;;19.40;44.30;;;;;;6172609;28;20121;-70
2021/03/20 04:10:51;;;;;;;1.50;0.70;;;19.40;44.30;;;;;;6172247;28;20027;-70
2021/03/20 04:14:12;;;;;;;1.15;0.80;;;19.40;44.20;;;;;;6172220;28;20407;-70
2021/03/20 04:17:39;;;;;;;0.75;0.50;;;19.50;44.40;;;;;;6172114;28;20497;-70
2021/03/20 04:21:08;;;;;;;1.70;0.75;;;19.40;44.30;;;;;;6167913;28;20089;-70
2021/03/20 04:24:23;;;;;;;0.68;0.50;;;19.40;44.30;;;;;;6167156;28;20545;-70
2021/03/20 04:27:31;;;;;;;1.08;0.60;;;19.40;44.30;;;;;;6172071;28;20126;-70
2021/03/20 04:30:33;;;;;;;1.23;0.60;;;19.40;45.00;;;;;;6182193;28;20481;-70
2021/03/20 04:33:41;;;;;;;0.60;0.43;;;19.40;44.30;;;;;;6189483;28;20033;-70
2021/03/20 04:36:57;;;;;;;0.70;0.60;;;19.40;44.30;;;;;;6169906;28;20047;-70
2021/03/20 04:39:58;;;;;;;0.65;0.47;;;19.40;44.30;;;;;;6170585;28;20034;-71
2021/03/20 04:42:59;;;;;;;0.40;0.40;;;19.40;44.30;;;;;;6194844;28;20030;-70
2021/03/20 04:46:07;;;;;;;1.38;0.68;;;19.40;44.30;;;;;;6173540;28;20465;-71
2021/03/20 04:49:24;;;;;;;1.23;0.70;;;19.40;44.30;;;;;;6171367;28;20068;-70
2021/03/20 04:52:38;;;;;;;0.65;0.40;;;19.40;44.30;;;;;;6171475;28;20027;-70
2021/03/20 04:55:39;;;;;;;0.90;0.57;;;19.40;44.30;;;;;;6171426;28;20061;-71
2021/03/20 04:58:47;;;;;;;1.52;0.60;;;19.40;44.30;;;;;;6170927;28;20026;-70
2021/03/20 05:01:50;;;;;;;0.70;0.57;;;19.40;44.30;;;;;;6171318;28;20081;-70
2021/03/20 05:04:55;;;;;;;1.00;0.60;;;19.40;44.30;;;;;;6169996;28;20514;-70
2021/03/20 05:08:01;;;;;;;0.70;0.50;;;19.40;45.00;;;;;;6171143;28;20038;-70
2021/03/20 05:11:37;;;;;;;0.50;0.50;;;19.40;44.30;;;;;;6170957;28;20089;-70
2021/03/20 05:14:39;;;;;;;0.70;0.50;;;19.40;44.30;;;;;;6171042;28;20026;-70
2021/03/20 05:17:40;;;;;;;0.73;0.60;;;19.40;44.20;;;;;;6170173;28;20050;-70
2021/03/20 05:20:40;;;;;;;0.60;0.50;;;19.40;44.20;;;;;;6170867;28;20043;-71
2021/03/20 05:23:41;;;;;;;0.88;0.47;;;19.40;44.20;;;;;;6171112;28;20106;-70
2021/03/20 05:26:42;;;;;;;0.75;0.50;;;19.50;44.30;;;;;;6170950;28;20027;-70
2021/03/20 05:29:42;;;;;;;0.85;0.50;;;19.50;44.20;;;;;;6171497;28;20115;-70
2021/03/20 05:32:43;;;;;;;0.73;0.50;;;19.50;44.30;;;;;;6170962;28;20050;-70
2021/03/20 05:35:44;;;;;;;0.85;0.68;;;19.50;44.20;;;;;;6170465;28;20035;-70
2021/03/20 05:38:46;;;;;;;0.50;0.43;;;19.50;44.30;;;;;;6170759;28;20038;-71
2021/03/20 05:42:08;;;;;;;0.50;0.50;;;19.50;44.20;;;;;;6171016;28;20045;-70
2021/03/20 05:45:17;;;;;;;0.82;0.50;;;19.50;44.20;;;;;;6159665;28;20031;-70
2021/03/20 05:48:51;;;;;;;0.40;0.35;;;19.50;44.20;;;;;;6170686;28;20034;-70
2021/03/20 05:52:14;;;;;;;2.40;0.57;;;19.50;44.20;;;;;;6170274;28;20025;-70
2021/03/20 05:55:24;;;;;;;0.40;0.40;;;19.50;44.20;;;;;;6170453;28;20031;-70
2021/03/20 05:59:06;;;;;;;1.48;0.63;;;19.50;44.30;;;;;;6184110;28;20026;-70
2021/03/20 06:02:21;;;;;;;0.85;0.50;;;19.50;44.20;;;;;;6174286;28;20054;-70
2021/03/20 06:05:52;;;;;;;0.98;0.60;;;19.50;44.30;;;;;;6168511;28;20030;-69
2021/03/20 06:09:34;;;;;;;0.50;0.50;;;19.50;44.30;;;;;;6171487;28;20031;-70
2021/03/20 06:12:56;;;;;;;0.88;0.65;;;19.50;44.30;;;;;;6170745;28;20037;-70
2021/03/20 06:16:13;;;;;;;0.80;0.60;;;19.50;44.20;;;;;;6170190;28;20120;-70
2021/03/20 06:19:43;;;;;;;0.40;0.40;;;19.50;44.30;;;;;;6170535;28;20470;-71
2021/03/20 06:23:02;;;;;;;0.65;0.47;;;19.50;44.30;;;;;;6184744;28;20432;-71
2021/03/20 06:26:13;;;;;;;0.60;0.50;;;19.50;44.30;;;;;;6186054;28;20081;-70
2021/03/20 06:29:28;;;;;;;0.75;0.40;;;19.50;44.30;;;;;;6174291;28;20439;-70
2021/03/20 06:32:36;;;;;;;1.37;0.43;;;19.50;44.30;;;;;;6174470;28;20026;-70
2021/03/20 06:35:47;;;;;;;0.60;0.50;;;19.50;44.20;;;;;;6174591;28;20078;-70
2021/03/20 06:38:58;;;;;;;0.90;0.50;;;19.50;44.30;;;;;;6174435;28;20026;-70
2021/03/20 06:42:03;;;;;;;0.73;0.60;;;19.50;44.20;;;;;;6182292;28;20552;-71
2021/03/20 06:45:16;;;;;;;0.70;0.50;;;19.50;44.30;;;;;;6198326;28;20027;-70
2021/03/20 06:48:21;;;;;;;1.92;0.60;;;19.50;44.30;;;;;;6174210;28;20027;-70
2021/03/20 06:51:22;;;;;;;0.60;0.50;;;19.50;44.90;;;;;;6172820;28;20425;-70
2021/03/20 06:54:25;;;;;;;0.65;0.45;;;19.50;44.20;;;;;;6174179;28;20069;-70
2021/03/20 06:57:27;;;;;;;1.30;0.60;;;19.50;44.30;;;;;;6175043;28;20386;-70
2021/03/20 07:00:31;;;;;;;1.13;0.60;;;19.50;44.20;;;;;;6172662;28;20035;-70
2021/03/20 07:03:53;;;;;;;0.85;0.52;;;19.50;44.30;;;;;;6173393;28;20627;-70
2021/03/20 07:07:06;;;;;;;1.10;0.70;;;19.50;44.30;;;;;;6173547;28;20443;-70
2021/03/20 07:10:21;;;;;;;0.70;0.70;;;19.50;44.30;;;;;;6172937;28;20084;-71
2021/03/20 07:13:28;;;;;;;0.35;0.35;;;19.50;44.30;;;;;;6173454;28;20453;-71
2021/03/20 07:16:31;;;;;;;0.80;0.40;;;19.50;44.20;;;;;;6173175;28;20053;-71
2021/03/20 07:19:32;;;;;;;1.27;0.60;;;19.50;44.20;;;;;;6173219;28;20022;-71
2021/03/20 07:22:47;;;;;;;0.80;0.60;;;19.50;44.30;;;;;;6172856;28;20077;-71
2021/03/20 07:25:51;;;;;;;0.82;0.50;;;19.50;44.20;;;;;;6173406;28;20026;-70
2021/03/20 07:28:56;;;;;;;0.68;0.50;;;19.50;44.20;;;;;;6185486;28;20066;-70
2021/03/20 07:31:58;;;;;;;0.45;0.40;;;19.50;44.20;;;;;;6192837;28;20042;-70
2021/03/20 07:35:20;;;;;;;0.52;0.40;;;19.50;44.20;;;;;;6173220;28;20030;-70
2021/03/20 07:38:29;;;;;;;1.08;0.43;;;19.50;44.20;;;;;;6171877;28;20492;-69
2021/03/20 07:41:45;;;;;;;0.80;0.50;;;19.50;44.20;;;;;;6170769;28;20043;-70
2021/03/20 07:44:59;;;;;;;1.30;0.65;;;19.50;44.20;;;;;;6172985;28;20027;-70
2021/03/20 07:48:03;;;;;;;0.70;0.47;;;19.50;44.20;;;;;;6177561;28;20022;-71
2021/03/20 07:51:07;;;;;;;0.52;0.50;;;19.50;44.20;;;;;;6197177;28;20030;-70
2021/03/20 07:54:30;;;;;;;2.17;0.60;;;19.50;44.20;;;;;;6177720;28;20038;-71
2021/03/20 07:57:32;;;;;;;0.40;0.35;;;19.50;44.10;;;;;;6172248;28;20125;-70
2021/03/20 08:00:35;;;;;;;1.52;0.90;;;19.50;44.90;;;;;;6172854;28;20122;-71
2021/03/20 08:03:55;;;;;;;0.85;0.60;;;19.50;44.20;;;;;;6172178;28;20022;-71
2021/03/20 08:06:55;;;;;;;0.50;0.50;;;19.50;44.20;;;;;;6173251;28;20101;-70
2021/03/20 08:10:29;;;;;;;1.35;0.50;;;19.50;44.10;;;;;;6187092;28;20073;-70
2021/03/20 08:13:51;;;;;;;0.50;0.47;;;19.50;44.20;;;;;;6167812;28;20035;-70
2021/03/20 08:16:52;;;;;;;0.40;0.35;;;19.50;44.20;;;;;;6172508;28;20501;-70
2021/03/20 08:19:52;;;;;;;0.80;0.30;;;19.50;44.30;;;;;;6171921;28;20030;-70
2021/03/20 08:23:37;;;;;;;0.68;0.57;;;19.50;44.10;;;;;;6186878;28;20430;-70
2021/03/20 08:27:03;;;;;;;0.98;0.68;;;19.50;44.10;;;;;;6173451;28;20031;-70
2021/03/20 08:30:27;;;;;;;0.60;0.45;;;19.50;44.10;;;;;;6172220;28;20042;-70
2021/03/20 08:33:34;;;;;;;0.75;0.50;;;19.50;44.10;;;;;;6171539;28;20026;-71
2021/03/20 08:37:02;;;;;;;1.20;0.70;;;19.50;44.10;;;;;;6171741;28;20042;-70
2021/03/20 08:40:32;;;;;;;2.00;0.68;;;19.50;44.10;;;;;;6171462;28;20027;-70
2021/03/20 08:44:02;;;;;;;0.65;0.50;;;19.50;44.10;;;;;;6171404;28;20034;-71
2021/03/20 08:47:14;;;;;;;0.60;0.40;;;19.50;44.00;;;;;;6176690;28;20070;-71
2021/03/20 08:50:34;;;;;;;0.93;0.60;;;19.50;44.10;;;;;;6175200;28;20105;-71
2021/03/20 08:53:55;;;;;;;0.75;0.57;;;19.50;44.00;;;;;;6170910;28;20034;-70
2021/03/20 08:57:13;;;;;;;0.82;0.40;;;19.50;44.10;;;;;;6171453;28;20027;-70
2021/03/20 09:00:49;;;;;;;0.73;0.50;;;19.50;44.10;;;;;;6167595;28;20090;-71
2021/03/20 09:03:55;;;;;;;1.80;0.53;;;19.50;44.10;;;;;;6168071;28;20354;-70
2021/03/20 09:07:09;;;;;;;0.88;0.40;;;19.50;44.00;;;;;;6168039;28;20275;-70
2021/03/20 09:10:19;;;;;;;1.38;0.77;;;19.50;44.00;;;;;;6167438;28;20023;-71
2021/03/20 09:13:31;;;;;;;0.90;0.40;;;19.50;44.70;;;;;;6167944;28;20441;-71
2021/03/20 09:16:38;;;;;;;1.35;0.52;;;19.50;44.10;;;;;;6167974;28;20524;-70
2021/03/20 09:19:47;;;;;;;0.90;0.50;;;19.50;44.10;;;;;;6167832;28;20049;-71
2021/03/20 09:22:48;;;;;;;0.90;0.50;;;19.50;44.00;;;;;;6168210;28;20362;-71
2021/03/20 09:25:55;;;;;;;0.88;0.60;;;19.50;44.10;;;;;;6167794;28;20137;-71
2021/03/20 09:28:56;;;;;;;1.02;0.60;;;19.50;44.00;;;;;;6167409;28;20425;-71
2021/03/20 09:32:15;;;;;;;0.30;0.30;;;19.50;44.10;;;;;;6169605;28;20078;-70
2021/03/20 09:35:38;;;;;;;0.70;0.50;;;19.50;44.00;;;;;;6170869;28;20377;-71
2021/03/20 09:38:38;;;;;;;1.40;0.50;;;19.50;44.00;;;;;;6170848;28;20500;-69
2021/03/20 09:41:39;;;;;;;1.38;0.68;;;19.50;44.00;;;;;;6170684;28;20038;-70
2021/03/20 09:44:43;;;;;;;0.57;0.47;;;19.50;43.80;;;;;;6170755;28;20041;-70
2021/03/20 09:47:44;;;;;;;1.30;0.50;;;19.50;44.00;;;;;;6168586;28;20030;-70
2021/03/20 09:50:44;;;;;;;0.80;0.60;;;19.50;44.00;;;;;;6169430;28;20070;-70
2021/03/20 09:53:45;;;;;;;0.80;0.50;;;19.50;44.10;;;;;;6170727;28;20046;-70
2021/03/20 09:56:45;;;;;;;0.43;0.40;;;19.50;44.00;;;;;;6170461;28;20035;-71
2021/03/20 09:59:46;;;;;;;1.00;0.40;;;19.50;43.90;;;;;;6170451;28;20121;-70
2021/03/20 10:02:54;;;;;;;1.08;0.40;;;19.50;44.00;;;;;;6173594;28;20501;-70
2021/03/20 10:06:23;;;;;;;0.40;0.40;;;19.50;44.00;;;;;;6174801;28;20042;-70
2021/03/20 10:09:25;;;;;;;0.80;0.40;;;19.50;43.90;;;;;;6172424;28;20513;-70
2021/03/20 10:12:36;;;;;;;1.73;0.55;;;19.50;44.00;;;;;;6175085;28;20026;-70
2021/03/20 10:15:50;;;;;;;1.00;0.57;;;19.50;44.00;;;;;;6175065;28;20526;-71
2021/03/20 10:19:17;;;;;;;0.77;0.40;;;19.50;44.10;;;;;;6175834;28;20334;-70
2021/03/20 10:22:27;;;;;;;0.38;0.30;;;19.50;43.90;;;;;;6173080;28;20058;-70
2021/03/20 10:25:30;;;;;;;0.70;0.40;;;19.50;43.90;;;;;;6174542;28;20252;-70
2021/03/20 10:28:42;;;;;;;0.50;0.47;;;19.50;44.10;;;;;;6186598;28;20026;-69
2021/03/20 10:31:50;;;;;;;0.82;0.43;;;19.50;44.00;;;;;;6183517;28;20031;-70
2021/03/20 10:34:55;;;;;;;0.90;0.50;;;19.50;43.90;;;;;;6174662;28;20027;-69
2021/03/20 10:37:55;;;;;;;1.02;0.50;;;19.50;44.70;;;;;;6174488;28;20073;-70
2021/03/20 10:41:48;;;;;;;1.33;0.60;;;19.50;43.90;;;;;;6174054;28;20043;-70
2021/03/20 10:45:02;;;;;;;0.50;0.30;;;19.50;44.00;;;;;;6147151;29;20046;-71
2021/03/20 10:48:39;;;;;;;0.97;0.40;;;19.50;44.60;;;;;;6146207;28;20031;-71
2021/03/20 10:51:40;;;;;;;;;;;19.50;43.90;;;;;;6171466;28;20266;-70
2021/03/20 10:54:44;;;;;;;0.40;0.38;;;19.50;43.90;;;;;;6174033;28;20125;-71
2021/03/20 10:57:46;;;;;;;0.60;0.40;;;19.60;44.00;;;;;;6173723;28;20026;-70
2021/03/20 11:00:48;;;;;;;0.95;0.50;;;19.60;43.90;;;;;;6172384;28;20039;-70
2021/03/20 11:03:49;;;;;;;0.57;0.50;;;19.60;43.80;;;;;;6172668;28;20410;-70
2021/03/20 11:06:52;;;;;;;0.93;0.50;;;19.50;43.80;;;;;;6173944;28;20026;-70
2021/03/20 11:10:08;;;;;;;0.57;0.40;;;19.50;43.80;;;;;;6174196;28;20034;-70
2021/03/20 11:13:37;;;;;;;0.65;0.45;;;19.50;43.90;;;;;;6176630;28;20366;-70
2021/03/20 11:16:50;;;;;;;0.85;0.40;;;19.50;43.80;;;;;;6170181;28;20055;-71
2021/03/20 11:20:05;;;;;;;0.30;0.30;;;19.50;43.70;;;;;;6173504;28;20027;-70
2021/03/20 11:23:07;;;;;;;0.63;0.40;;;19.50;43.70;;;;;;6173278;28;20497;-70
2021/03/20 11:26:23;;;;;;;0.40;0.40;;;19.50;43.60;;;;;;6173325;28;20757;-70
2021/03/20 11:29:27;;;;;;;0.52;0.40;;;19.50;43.60;;;;;;6173839;28;20022;-70
2021/03/20 11:32:35;;;;;;;0.30;0.30;;;19.50;43.60;;;;;;6173104;28;20102;-70
2021/03/20 11:35:41;;;;;;;0.30;0.30;;;19.50;43.70;;;;;;6172960;28;20410;-70
2021/03/20 11:38:42;;;;;;;0.80;0.43;;;19.60;43.80;;;;;;6172870;28;20034;-71
2021/03/20 11:41:44;;;;;;;1.58;0.60;;;19.50;43.60;;;;;;6172924;28;20430;-70
2021/03/20 11:44:49;;;;;;;0.65;0.47;;;19.50;43.70;;;;;;6173016;28;20431;-70
2021/03/20 11:47:50;;;;;;;;;;;19.50;43.60;;;;;;6171336;28;20066;-71
2021/03/20 11:50:57;;;;;;;1.00;0.40;;;19.50;43.60;;;;;;6172731;28;20206;-70
2021/03/20 11:54:03;;;;;;;0.85;0.30;;;19.50;43.60;;;;;;6172472;28;20026;-70
2021/03/20 11:57:29;;;;;;;1.38;0.65;;;19.50;43.50;;;;;;6190784;28;20027;-70
2021/03/20 12:00:40;;;;;;;0.50;0.30;;;19.50;43.50;;;;;;6172977;28;20042;-70
2021/03/20 12:03:40;;;;;;;0.50;0.30;;;19.50;43.70;;;;;;6188984;28;20555;-69
2021/03/20 12:06:41;;;;;;;0.90;0.50;;;19.50;43.60;;;;;;6196164;28;20030;-69
2021/03/20 12:09:41;;;;;;;1.27;0.50;;;19.60;43.70;;;;;;6172901;28;20516;-70
2021/03/20 12:12:51;;;;;;;0.73;0.40;;;19.60;43.70;;;;;;6172492;28;20027;-71
2021/03/20 12:15:52;;;;;;;1.60;0.30;;;19.60;43.70;;;;;;6171810;28;20057;-70
2021/03/20 12:19:20;;;;;;;0.40;0.40;;;19.60;43.80;;;;;;6170729;28;20049;-70
2021/03/20 12:22:50;;;;;;;0.60;0.45;;;19.60;43.70;;;;;;6171847;28;20054;-69
2021/03/20 12:25:54;;;;;;;0.60;0.40;;;19.60;43.60;;;;;;6171107;28;20058;-69
2021/03/20 12:29:19;;;;;;;0.73;0.40;;;19.60;43.80;;;;;;6168499;28;20023;-69
2021/03/20 12:32:43;;;;;;;0.40;0.40;;;19.60;43.70;;;;;;6171633;28;20081;-70
2021/03/20 12:35:49;;;;;;;1.17;0.73;;;19.60;44.00;;;;;;6179176;28;20050;-70
2021/03/20 12:38:50;;;;;;;1.42;0.88;;;19.50;43.50;;;;;;6195022;28;20022;-70
2021/03/20 12:41:55;;;;;;;4.05;0.65;;;19.50;42.40;;;;;;6193669;28;20061;-70
2021/03/20 12:44:55;;;;;;;2.08;0.90;;;19.40;43.00;;;;;;6193828;28;20038;-70
2021/03/20 12:47:56;;;;;;;1.88;0.98;;;19.40;42.00;;;;;;6188769;28;20709;-70
2021/03/20 12:51:00;;;;;;;4.97;0.80;;;19.40;40.20;;;;;;6180554;28;20031;-70
2021/03/20 12:54:00;;;;;;;8.13;1.42;;;19.40;40.70;;;;;;6192826;28;20125;-70
2021/03/20 12:57:01;;;;;;;5.95;1.42;;;19.40;37.50;;;;;;6172650;28;20034;-71
2021/03/20 13:00:15;;;;;;;11.38;1.67;;;19.40;35.70;;;;;;6170185;28;20027;-70
2021/03/20 13:03:16;;;;;;;3.30;1.00;;;19.50;36.50;;;;;;6194233;28;20030;-70
2021/03/20 13:06:16;;;;;;;3.80;1.00;;;19.40;37.00;;;;;;6188009;28;20603;-70
2021/03/20 13:09:18;;;;;;;3.65;1.20;;;19.50;37.70;;;;;;6170368;28;20026;-71
2021/03/20 13:12:19;;;;;;;9.18;0.95;;;19.50;38.40;;;;;;6178898;28;20485;-70
2021/03/20 13:15:20;;;;;;;7.20;0.88;;;19.50;38.90;;;;;;6170022;28;20023;-71
2021/03/20 13:18:21;;;;;;;7.35;1.17;;;19.50;39.40;;;;;;6183731;28;20286;-71
2021/03/20 13:21:22;;;;;;;6.10;0.82;;;19.50;39.50;;;;;;6193195;28;20061;-70
2021/03/20 13:24:23;;;;;;;2.38;1.02;;;19.50;40.20;;;;;;6184357;28;20375;-70
2021/03/20 13:27:24;;;;;;;6.38;0.95;;;19.50;39.50;;;;;;6169211;28;20022;-71
2021/03/20 13:30:27;;;;;;;3.28;1.00;;;19.50;38.70;;;;;;6176059;28;20463;-71
2021/03/20 13:33:28;;;;;;;6.10;0.90;;;19.50;38.90;;;;;;6169981;28;20042;-71
2021/03/20 13:36:29;;;;;;;6.93;0.95;;;19.50;39.70;;;;;;6184090;28;20034;-70
2021/03/20 13:39:29;;;;;;;6.10;1.30;;;19.50;40.40;;;;;;6199050;28;20109;-72
2021/03/20 13:42:30;;;;;;;2.85;1.10;;;19.50;40.50;;;;;;6187507;28;20031;-71
2021/03/20 13:45:32;;;;;;;5.15;1.58;;;19.50;40.10;;;;;;6174923;28;20206;-71
2021/03/20 13:48:35;;;;;;;1.95;0.90;;;19.50;40.50;;;;;;6196496;28;20053;-70
2021/03/20 13:51:38;;;;;;;3.10;0.98;;;19.50;40.30;;;;;;6197497;28;20451;-71
2021/03/20 13:54:39;;;;;;;4.10;0.65;;;19.50;40.20;;;;;;6197067;28;20117;-70
2021/03/20 13:57:39;;;;;;;3.65;0.80;;;19.50;40.30;;;;;;6197426;28;20363;-70
2021/03/20 14:00:40;;;;;;;9.00;1.55;;;19.50;40.70;;;;;;6197737;28;20034;-69
2021/03/20 14:03:40;;;;;;;6.32;0.82;;;19.50;41.30;;;;;;6197852;28;20038;-71
2021/03/20 14:06:41;;;;;;;3.75;0.88;;;19.60;40.90;;;;;;6196362;28;20565;-70
2021/03/20 14:09:41;;;;;;;2.88;0.95;;;19.60;40.40;;;;;;6195851;28;20042;-70
2021/03/20 14:12:42;;;;;;;1.67;0.88;;;19.70;40.60;;;;;;6197835;28;20032;-70
2021/03/20 14:15:42;;;;;;;2.60;0.90;;;19.70;40.50;;;;;;6197508;28;20378;-69
2021/03/20 14:18:43;;;;;;;1.20;0.70;;;19.70;40.80;;;;;;6181495;28;20092;-70
2021/03/20 14:21:43;;;;;;;2.70;0.95;;;19.70;41.20;;;;;;6176126;28;20382;-71
2021/03/20 14:24:44;;;;;;;1.70;0.80;;;19.70;41.70;;;;;;6178401;28;20077;-70
2021/03/20 14:27:44;;;;;;;1.45;0.77;;;19.70;41.40;;;;;;6197565;28;20030;-70
2021/03/20 14:30:48;;;;;;;1.58;0.60;;;19.60;41.40;;;;;;6177350;28;20023;-70
2021/03/20 14:33:48;;;;;;;2.38;0.77;;;19.60;41.50;;;;;;6197264;28;20030;-70
2021/03/20 14:36:49;;;;;;;2.08;0.60;;;19.60;41.60;;;;;;6197378;28;20027;-71
2021/03/20 14:39:50;;;;;;;1.45;0.65;;;19.60;41.90;;;;;;6174643;28;20478;-70
2021/03/20 14:42:51;;;;;;;5.03;0.80;;;19.60;41.70;;;;;;6184094;28;20061;-70
2021/03/20 14:45:53;;;;;;;2.60;1.17;;;19.60;41.80;;;;;;6195981;28;20676;-70
2021/03/20 14:48:53;;;;;;;3.33;0.90;;;19.60;41.90;;;;;;6196819;28;20480;-70
2021/03/20 14:51:54;;;;;;;3.95;0.80;;;19.60;41.90;;;;;;6196976;28;20018;-71
2021/03/20 14:54:54;;;;;;;3.80;0.73;;;19.60;42.10;;;;;;6176360;28;20386;-71
2021/03/20 14:57:55;;;;;;;1.17;0.68;;;19.60;42.30;;;;;;6192939;28;20027;-71
2021/03/20 15:00:55;;;;;;;3.25;1.00;;;19.60;42.00;;;;;;6177856;28;20402;-71
2021/03/20 15:03:57;;;;;;;4.72;0.70;;;19.60;42.40;;;;;;6175496;28;20035;-69
2021/03/20 15:06:58;;;;;;;3.88;0.77;;;19.60;42.20;;;;;;6171433;28;20027;-70
2021/03/20 15:09:58;;;;;;;2.67;0.43;;;19.60;42.20;;;;;;6169565;28;20034;-71
2021/03/20 15:13:00;;;;;;;1.40;0.77;;;19.60;42.40;;;;;;6185801;28;20402;-71
2021/03/20 15:16:02;;;;;;;1.65;0.60;;;19.60;42.40;;;;;;6171903;28;20514;-70
2021/03/20 15:19:02;;;;;;;4.82;0.68;;;19.60;42.50;;;;;;6171354;28;20037;-70
2021/03/20 15:22:03;;;;;;;2.70;0.60;;;19.60;42.40;;;;;;6187528;28;20038;-70
2021/03/20 15:25:05;;;;;;;3.05;0.60;;;19.60;42.50;;;;;;6183567;28;20279;-71
2021/03/20 15:28:06;;;;;;;7.47;0.60;;;19.60;42.50;;;;;;6171434;28;20038;-70
2021/03/20 15:31:07;;;;;;;5.20;0.70;;;19.60;42.80;;;;;;6170627;28;20552;-70
2021/03/20 15:34:08;;;;;;;5.57;0.95;;;19.70;42.70;;;;;;6185793;28;20081;-71
2021/03/20 15:37:08;;;;;;;0.80;0.57;;;19.80;42.40;;;;;;6196432;28;20386;-70
2021/03/20 15:40:11;;;;;;;1.70;0.73;;;19.90;42.30;;;;;;6194587;28;20080;-69
2021/03/20 15:43:17;;;;;;;1.38;0.70;;;19.90;42.50;;;;;;6194869;28;20022;-71
2021/03/20 15:46:20;;;;;;;1.23;0.50;;;20.00;41.80;;;;;;6208876;28;20052;-72
2021/03/20 15:49:24;;;;;;;1.63;0.52;;;20.10;42.50;;;;;;6186450;28;20389;-72
2021/03/20 15:52:25;;;;;;;4.15;0.70;;;20.10;41.60;;;;;;6169827;28;20055;-71
2021/03/20 15:55:27;;;;;;;1.25;0.52;;;20.10;42.30;;;;;;6171215;28;20025;-71
2021/03/20 15:58:31;;;;;;;4.88;0.75;;;20.10;42.40;;;;;;6181752;28;20041;-69
2021/03/20 16:01:32;;;;;;;1.40;0.63;;;20.20;42.80;;;;;;6171014;28;20105;-71
2021/03/20 16:04:32;;;;;;;3.75;0.80;;;20.20;42.60;;;;;;6185729;28;20054;-71
2021/03/20 16:07:34;;;;;;;4.50;0.50;;;20.10;42.60;;;;;;6194858;28;20033;-73
2021/03/20 16:10:41;;;;;;;0.75;0.45;;;20.20;42.40;;;;;;6193036;28;20041;-70
2021/03/20 16:13:42;;;;;;;1.85;0.57;;;20.20;42.10;;;;;;6194341;28;20117;-72
2021/03/20 16:16:42;;;;;;;1.05;0.40;;;20.20;41.60;;;;;;6184587;28;20059;-72
2021/03/20 16:19:43;;;;;;;4.53;0.50;;;20.30;43.00;;;;;;6175945;28;20053;-71